Portada
METAR-TAF:

METAR-TAF

Aeroports :

Aeroport de Jiddah Rei Abdulaziz

Jiddah, Aràbia Saudita

latitud: 21-42N, longitud: 039-11E, altitud: 15 m

Observació

L'informe es va fer fa 28 minuts, a les 02:00 UTC
Vent 3 kt del Nord/Nord-Oest
Temperatura 26°C
Humitat 61%
Pressió 1006 hPa
Visibilitat 10 km o més
sense núvols per sota de 1500 mi sense presència de cumulonimbus.

METAR: OEJN 190200Z 33003KT CAVOK 26/18 Q1006 NOSIG

Hora: 05:28 (02:28 UTC)

Pronòstic

L'informe es va fer fa 3 hores i 28 minuts, a les 23:00 UTC
Pronòstic vàlid del 19 a les 00 UTC al 20 a les 06 UTC
Vent 3 kt amb direcció variable
Visibilitat 10 km o més
sense núvols per sota de 1500 mi sense presència de cumulonimbus.
Evolucionant progressivament
l' 19 a les 06 UTC al 19 a les 08 UTC
Vent 13 kt del Oest/Nord-Oest
Visibilitat: 7000 m
Evolucionant progressivament
l' 19 a les 16 UTC al 19 a les 18 UTC
Vent 5 kt del Nord/Nord-Est

TAF: OEJN 182300Z 1900/2006 VRB03KT CAVOK BECMG 1906/1908 29013KT 7000 NSC BECMG 1916/1918 03005KT

Observacions i pronòstics meteorològics de més de 4000 aeroports (METAR i TAF).

Les estacions disponibles són els punts grocs i vermells al mapa.

Posi el ratolí al punt desitjat per veure el nom de l'estació.

Feu clic per veure les observacions i els pronòstics meteorològics.

Per canviar el mapa: feu clic els botons verds amb una creu de color negre per apropar; al botó verd amb un guió per allunyar la imatge; o en les fletxes verdes per a mapes adjacents.


METAR-TAF: